Terminal Aerodrome Forecast
Issued by NWS

Home | Current Version | Previous Version | Text Only | Print | Product List | Glossary On
Versions: 1 2 3 4 5 6 7 8 9 10 11 12 13 14 15 16 17 18 19
451
FTUS43 KGRB 281739
TAFAUW
TAF
KAUW 281739Z 2818/0118 08004KT 1/4SM FG OVC002
      TEMPO 2818/2822 3SM -SHRA BR SCT002 OVC005
     FM282200 03006KT 1SM -RA BR OVC005
     FM010100 02006KT 3SM -RA BR OVC006
     FM010600 01008G15KT 3SM -RASNPL BR OVC008
     FM011000 35010G18KT 1SM -SN OVC012
     FM011700 35014G21KT 3SM -SN OVC014=

USA.gov is the U.S. government's official web portal to all federal, state and local government web resources and services.